createdAt,value
2023-03-23T00:01:05.184Z,19
2023-03-23T00:16:05.541Z,19
2023-03-23T00:31:04.916Z,17
2023-03-23T00:46:05.342Z,17
2023-03-23T01:01:05.328Z,16
2023-03-23T01:16:04.636Z,16
2023-03-23T01:31:14.165Z,16
2023-03-23T01:46:05.230Z,15
2023-03-23T02:01:05.657Z,17
2023-03-23T02:16:05.541Z,16
2023-03-23T02:31:05.307Z,15
2023-03-23T02:46:04.757Z,19
2023-03-23T03:01:04.740Z,14
2023-03-23T03:16:05.242Z,12
2023-03-23T03:31:05.016Z,11
2023-03-23T03:46:05.292Z,11
2023-03-23T04:01:04.787Z,11
2023-03-23T04:16:07.021Z,11
2023-03-23T04:31:06.049Z,12
2023-03-23T04:46:05.360Z,11
2023-03-23T05:01:05.066Z,10
2023-03-23T05:16:05.589Z,9
2023-03-23T05:31:05.548Z,12
2023-03-23T05:46:05.130Z,9
2023-03-23T06:01:05.310Z,9
2023-03-23T06:16:05.862Z,8
2023-03-23T06:31:04.841Z,8
2023-03-23T06:46:05.031Z,8
2023-03-23T07:01:05.140Z,8
2023-03-23T07:16:05.491Z,7
2023-03-23T07:31:04.749Z,7
2023-03-23T07:46:04.914Z,7
2023-03-23T08:01:05.498Z,9
2023-03-23T08:16:04.867Z,7
2023-03-23T08:31:05.463Z,7
2023-03-23T08:46:04.601Z,6
2023-03-23T09:01:05.048Z,7
2023-03-23T09:16:05.839Z,7
2023-03-23T09:31:05.289Z,6
2023-03-23T09:46:05.783Z,5
2023-03-23T10:01:05.502Z,5
2023-03-23T10:16:05.044Z,5
2023-03-23T10:31:05.444Z,4
2023-03-23T10:46:06.012Z,4
2023-03-23T11:01:04.864Z,4
2023-03-23T11:16:05.666Z,3
2023-03-23T11:31:05.147Z,4
2023-03-23T11:46:05.966Z,5
2023-03-23T12:01:05.524Z,5
2023-03-23T12:16:04.971Z,4
2023-03-23T12:31:04.997Z,4
2023-03-23T12:46:05.524Z,5
2023-03-23T13:01:04.795Z,6
2023-03-23T13:16:05.593Z,4
2023-03-23T13:31:04.781Z,3
2023-03-23T13:46:05.356Z,4
2023-03-23T14:01:05.060Z,3
2023-03-23T14:16:05.382Z,4
2023-03-23T14:31:05.535Z,7
2023-03-23T14:46:04.698Z,6
2023-03-23T15:01:04.822Z,12
2023-03-23T15:16:05.003Z,7
2023-03-23T15:31:05.093Z,8
2023-03-23T15:46:05.735Z,11
2023-03-23T16:01:04.743Z,14
2023-03-23T16:16:05.486Z,14
2023-03-23T16:31:04.902Z,17
2023-03-23T16:46:05.535Z,11
2023-03-23T17:01:05.261Z,11
2023-03-23T17:16:05.591Z,12
2023-03-23T17:31:05.040Z,13
2023-03-23T17:46:05.568Z,20
2023-03-23T18:01:05.391Z,17
2023-03-23T18:16:05.664Z,13
2023-03-23T18:31:04.801Z,16
2023-03-23T18:46:05.183Z,26
2023-03-23T19:01:05.737Z,19
2023-03-23T19:16:04.678Z,19
2023-03-23T19:31:05.281Z,20
2023-03-23T19:46:05.625Z,18
2023-03-23T20:01:05.058Z,18
2023-03-23T20:16:05.618Z,15
2023-03-23T20:31:16.542Z,16
2023-03-23T20:46:05.568Z,19
2023-03-23T21:01:04.862Z,16
2023-03-23T21:16:05.300Z,15
2023-03-23T21:31:04.935Z,12
2023-03-23T21:46:05.674Z,11
2023-03-23T22:01:05.269Z,10
2023-03-23T22:16:05.128Z,7
2023-03-23T22:31:05.689Z,7
2023-03-23T22:46:05.262Z,6
2023-03-23T23:01:04.848Z,6
2023-03-23T23:16:05.338Z,8
2023-03-23T23:31:05.202Z,7
2023-03-23T23:46:04.875Z,7
